Terminal Aerodrome Forecast
Issued by NWS Buffalo, NY

Home | Current Version | Previous Version | Text Only | Print | Product List | Glossary On
Versions: 1 2 3 4 5 6 7 8 9 10 11 12 13 14 15 16 17 18 19 20 21 22 23 24 25 26 27 28
000
FTUS41 KBUF 022338
TAFART
TAF
KART 022338Z 0300/0324 22006KT P6SM BKN110
     FM030100 21006KT P6SM VCSH BKN080
     FM030300 19006KT P6SM BKN080
     FM030800 20010KT P6SM BKN050 WS020/22040KT
     FM031000 21011KT P6SM BKN050
     FM031700 23014KT 6SM -SHRA VCTS OVC035CB
     FM032200 22008KT P6SM VCSH BKN050=

USA.gov is the U.S. government's official web portal to all federal, state and local government web resources and services.